Santamaria — JI3409 — position and weather

sailwx.info

Track history (hours):
 
Tides and Currents Weather Stations Pressure Air Temp Water Temp Dewpoint Dewpoint Depression Visibility Wind Speed Wind Dir Waves Ship Positions

Santamaria

Last reported at 2018-Jan-24 11:00 UTC. Time now 2018-Jan-24 11:13 UTC.
Position N 34°39' E 135°27'.

Length 45 m; draft 2.8 m.

Type: Passenger vessel. MMSI: 431000619.

Date/timePositionNaut miles runAvg speedWind from/ knotsBaromVisibWave heightAir tempDewpointWater temp
2018-Jan-24 11:00N 34°39' E 135°27'0 0.0
2018-Jan-24 10:30N 34°39' E 135°27'0 0.0
2018-Jan-24 10:00N 34°39' E 135°27'0 0.0
2018-Jan-24 09:30N 34°39' E 135°27'0 0.0
2018-Jan-24 09:00N 34°39' E 135°27'0 0.0
2018-Jan-24 08:31N 34°39' E 135°27'0 0.0
2018-Jan-24 08:00N 34°39' E 135°27'0 0.0
2018-Jan-24 07:30N 34°39' E 135°27'0 0.0
2018-Jan-24 07:00N 34°39' E 135°27'0 0.0
2018-Jan-24 06:30N 34°39' E 135°27'0 0.0
2018-Jan-24 06:00N 34°39' E 135°27'0 0.0
2018-Jan-24 05:30N 34°39' E 135°27'0 0.0
2018-Jan-24 05:00N 34°39' E 135°27'0 0.0
2018-Jan-24 04:30N 34°39' E 135°27'0 0.0
2018-Jan-24 04:00N 34°39' E 135°27'0 0.0
2018-Jan-24 03:31N 34°39' E 135°27'0 0.0
2018-Jan-24 03:01N 34°39' E 135°27'5 9.5
2018-Jan-24 02:30N 34°37' E 135°22'2 4.5
2018-Jan-24 02:00N 34°38' E 135°19'5 9.3
2018-Jan-24 01:31N 34°39' E 135°25'3 6.4
2018-Jan-24 01:00N 34°38' E 135°28'0 0.0
2018-Jan-24 00:30N 34°38' E 135°28'0 0.1
2018-Jan-24 00:00N 34°38' E 135°29'0 0.0
2018-Jan-23 23:30N 34°38' E 135°29'0 0.0
2018-Jan-23 23:00N 34°38' E 135°29'0 0.0
2018-Jan-23 22:28N 34°38' E 135°29'0 0.0
2018-Jan-23 22:00N 34°38' E 135°29'0 0.1
2018-Jan-23 21:30N 34°38' E 135°28'0 0.1
2018-Jan-23 21:00N 34°38' E 135°29'0 0.1
2018-Jan-23 20:30N 34°38' E 135°28'0 0.0
2018-Jan-23 20:00N 34°38' E 135°28'0 0.0
2018-Jan-23 19:30N 34°38' E 135°28'0 0.0
2018-Jan-23 19:00N 34°38' E 135°28'0 0.1
2018-Jan-23 18:30N 34°38' E 135°29'0 0.1
2018-Jan-23 17:58N 34°38' E 135°28'0 0.1
2018-Jan-23 17:30N 34°38' E 135°29'0 0.0
2018-Jan-23 17:00N 34°38' E 135°29'0 0.1
2018-Jan-23 16:31N 34°38' E 135°28'0 0.0
2018-Jan-23 16:00N 34°38' E 135°28'0 0.1
2018-Jan-23 15:30N 34°38' E 135°29'0 0.0
2018-Jan-23 15:00N 34°38' E 135°29'0 0.0
2018-Jan-23 14:30N 34°38' E 135°29'0 0.0
2018-Jan-23 14:00N 34°38' E 135°29'0 0.0
2018-Jan-23 13:28N 34°38' E 135°29'0 0.1
2018-Jan-23 13:00N 34°38' E 135°28'0 0.1
2018-Jan-23 12:29N 34°38' E 135°29'0 0.0
2018-Jan-23 12:00N 34°38' E 135°29'0 0.0
2018-Jan-23 11:30N 34°38' E 135°29'0 0.0
2018-Jan-23 11:00N 34°38' E 135°29'0 0.0
2018-Jan-23 10:30N 34°38' E 135°29'0 0.0
2018-Jan-23 10:00N 34°38' E 135°29'0 0.0
2018-Jan-23 09:30N 34°38' E 135°29'0 0.1
2018-Jan-23 09:00N 34°38' E 135°28'0 0.1
2018-Jan-23 08:30N 34°38' E 135°29'0 0.0
2018-Jan-23 08:00N 34°38' E 135°29'0 0.1
2018-Jan-23 07:31N 34°38' E 135°28'0 0.1
2018-Jan-23 07:00N 34°38' E 135°29'0 0.0
2018-Jan-23 06:30N 34°38' E 135°29'0 0.0
2018-Jan-23 06:00N 34°38' E 135°29'0 0.0
2018-Jan-23 05:30N 34°38' E 135°29'0 0.0
2018-Jan-23 05:01N 34°38' E 135°29'0 0.0
2018-Jan-23 04:30N 34°38' E 135°29'0 0.0
2018-Jan-23 04:00N 34°38' E 135°29'0 0.1
2018-Jan-23 03:30N 34°38' E 135°28'0 0.0
2018-Jan-23 03:00N 34°38' E 135°28'0 0.0
2018-Jan-23 02:30N 34°38' E 135°28'0 0.0
2018-Jan-23 02:00N 34°38' E 135°28'0 0.1
2018-Jan-23 01:30N 34°38' E 135°29'0 0.5
2018-Jan-23 01:00N 34°38' E 135°28'0 0.0
2018-Jan-23 00:29N 34°38' E 135°28'0 0.1
2018-Jan-23 00:00N 34°38' E 135°28'0 0.4
2018-Jan-22 23:30N 34°38' E 135°29'0 0.0
2018-Jan-22 23:00N 34°38' E 135°29'0 0.0
2018-Jan-22 22:30N 34°38' E 135°29'0 0.0
2018-Jan-22 22:00N 34°38' E 135°29'0 0.0
2018-Jan-22 21:30N 34°38' E 135°29'0 0.1
2018-Jan-22 21:00N 34°38' E 135°28'0 0.1
2018-Jan-22 20:30N 34°38' E 135°29'0 0.1
2018-Jan-22 20:01N 34°38' E 135°28'0 0.1
2018-Jan-22 19:30N 34°38' E 135°29'0 0.0
2018-Jan-22 19:00N 34°38' E 135°29'0 0.0
2018-Jan-22 18:30N 34°38' E 135°29'0 0.0
2018-Jan-22 18:00N 34°38' E 135°29'0 0.0
2018-Jan-22 17:30N 34°38' E 135°29'0 0.0
2018-Jan-22 17:00N 34°38' E 135°29'0 0.0
2018-Jan-22 16:30N 34°38' E 135°29'0 0.1
2018-Jan-22 16:00N 34°38' E 135°28'0 0.1
2018-Jan-22 15:30N 34°38' E 135°29'0 0.0
2018-Jan-22 15:00N 34°38' E 135°29'0 0.0
2018-Jan-22 14:30N 34°38' E 135°29'0 0.0
2018-Jan-22 14:00N 34°38' E 135°29'0 0.0
2018-Jan-22 13:30N 34°38' E 135°29'0 0.0
2018-Jan-22 13:00N 34°38' E 135°29'0 0.0
2018-Jan-22 12:30N 34°38' E 135°29'0 0.0
2018-Jan-22 12:00N 34°38' E 135°29'0 0.0
2018-Jan-22 11:31N 34°38' E 135°29'0 0.0
2018-Jan-22 11:00N 34°38' E 135°29'0 0.0
2018-Jan-22 10:30N 34°38' E 135°29'0 0.0
2018-Jan-22 10:01N 34°38' E 135°29'0 0.1
2018-Jan-22 09:30N 34°38' E 135°28'0 0.1
2018-Jan-22 09:00N 34°38' E 135°29'0 0.0
2018-Jan-22 08:30N 34°38' E 135°29'0 0.1
2018-Jan-22 08:00N 34°38' E 135°28'0 0.1
2018-Jan-22 07:30N 34°38' E 135°29'0 0.0
2018-Jan-22 07:00N 34°38' E 135°29'0 0.0
2018-Jan-22 06:30N 34°38' E 135°29'0 0.0
2018-Jan-22 06:00N 34°38' E 135°29'0 0.0
2018-Jan-22 05:30N 34°38' E 135°29'0 0.0
2018-Jan-22 05:00N 34°38' E 135°29'0 0.0
2018-Jan-22 04:30N 34°38' E 135°29'0 0.0
2018-Jan-22 04:00N 34°38' E 135°29'0 0.0
2018-Jan-22 03:30N 34°38' E 135°29'0 0.1
2018-Jan-22 03:00N 34°38' E 135°28'0 0.1
2018-Jan-22 02:30N 34°38' E 135°29'  
2018-Jan-19 07:26N 34°38' E 135°29'0 0.0
2018-Jan-19 07:00N 34°38' E 135°29'0 0.0
2018-Jan-19 06:30N 34°38' E 135°29'  
Track history (hours):
 
Tides and Currents Weather Stations Pressure Air Temp Water Temp Dewpoint Dewpoint Depression Visibility Wind Speed Wind Dir Waves Ship Positions

Santamaria

Last reported at 2018-Jan-24 11:00 UTC. Time now 2018-Jan-24 11:13 UTC.
Position N 34°39' E 135°27'.

Length 45 m; draft 2.8 m.

Type: Passenger vessel. MMSI: 431000619.

Date/timePositionNaut miles runAvg speedWind from/ knotsBaromVisibWave heightAir tempDewpointWater temp
2018-Jan-24 11:00N 34°39' E 135°27'0 0.0
2018-Jan-24 10:30N 34°39' E 135°27'0 0.0
2018-Jan-24 10:00N 34°39' E 135°27'0 0.0
2018-Jan-24 09:30N 34°39' E 135°27'0 0.0
2018-Jan-24 09:00N 34°39' E 135°27'0 0.0
2018-Jan-24 08:31N 34°39' E 135°27'0 0.0
2018-Jan-24 08:00N 34°39' E 135°27'0 0.0
2018-Jan-24 07:30N 34°39' E 135°27'0 0.0
2018-Jan-24 07:00N 34°39' E 135°27'0 0.0
2018-Jan-24 06:30N 34°39' E 135°27'0 0.0
2018-Jan-24 06:00N 34°39' E 135°27'0 0.0
2018-Jan-24 05:30N 34°39' E 135°27'0 0.0
2018-Jan-24 05:00N 34°39' E 135°27'0 0.0
2018-Jan-24 04:30N 34°39' E 135°27'0 0.0
2018-Jan-24 04:00N 34°39' E 135°27'0 0.0
2018-Jan-24 03:31N 34°39' E 135°27'0 0.0
2018-Jan-24 03:01N 34°39' E 135°27'5 9.5
2018-Jan-24 02:30N 34°37' E 135°22'2 4.5
2018-Jan-24 02:00N 34°38' E 135°19'5 9.3
2018-Jan-24 01:31N 34°39' E 135°25'3 6.4
2018-Jan-24 01:00N 34°38' E 135°28'0 0.0
2018-Jan-24 00:30N 34°38' E 135°28'0 0.1
2018-Jan-24 00:00N 34°38' E 135°29'0 0.0
2018-Jan-23 23:30N 34°38' E 135°29'0 0.0
2018-Jan-23 23:00N 34°38' E 135°29'0 0.0
2018-Jan-23 22:28N 34°38' E 135°29'0 0.0
2018-Jan-23 22:00N 34°38' E 135°29'0 0.1
2018-Jan-23 21:30N 34°38' E 135°28'0 0.1
2018-Jan-23 21:00N 34°38' E 135°29'0 0.1
2018-Jan-23 20:30N 34°38' E 135°28'0 0.0
2018-Jan-23 20:00N 34°38' E 135°28'0 0.0
2018-Jan-23 19:30N 34°38' E 135°28'0 0.0
2018-Jan-23 19:00N 34°38' E 135°28'0 0.1
2018-Jan-23 18:30N 34°38' E 135°29'0 0.1
2018-Jan-23 17:58N 34°38' E 135°28'0 0.1
2018-Jan-23 17:30N 34°38' E 135°29'0 0.0
2018-Jan-23 17:00N 34°38' E 135°29'0 0.1
2018-Jan-23 16:31N 34°38' E 135°28'0 0.0
2018-Jan-23 16:00N 34°38' E 135°28'0 0.1
2018-Jan-23 15:30N 34°38' E 135°29'0 0.0
2018-Jan-23 15:00N 34°38' E 135°29'0 0.0
2018-Jan-23 14:30N 34°38' E 135°29'0 0.0
2018-Jan-23 14:00N 34°38' E 135°29'0 0.0
2018-Jan-23 13:28N 34°38' E 135°29'0 0.1
2018-Jan-23 13:00N 34°38' E 135°28'0 0.1
2018-Jan-23 12:29N 34°38' E 135°29'0 0.0
2018-Jan-23 12:00N 34°38' E 135°29'0 0.0
2018-Jan-23 11:30N 34°38' E 135°29'0 0.0
2018-Jan-23 11:00N 34°38' E 135°29'0 0.0
2018-Jan-23 10:30N 34°38' E 135°29'0 0.0
2018-Jan-23 10:00N 34°38' E 135°29'0 0.0
2018-Jan-23 09:30N 34°38' E 135°29'0 0.1
2018-Jan-23 09:00N 34°38' E 135°28'0 0.1
2018-Jan-23 08:30N 34°38' E 135°29'0 0.0
2018-Jan-23 08:00N 34°38' E 135°29'0 0.1
2018-Jan-23 07:31N 34°38' E 135°28'0 0.1
2018-Jan-23 07:00N 34°38' E 135°29'0 0.0
2018-Jan-23 06:30N 34°38' E 135°29'0 0.0
2018-Jan-23 06:00N 34°38' E 135°29'0 0.0
2018-Jan-23 05:30N 34°38' E 135°29'0 0.0
2018-Jan-23 05:01N 34°38' E 135°29'0 0.0
2018-Jan-23 04:30N 34°38' E 135°29'0 0.0
2018-Jan-23 04:00N 34°38' E 135°29'0 0.1
2018-Jan-23 03:30N 34°38' E 135°28'0 0.0
2018-Jan-23 03:00N 34°38' E 135°28'0 0.0
2018-Jan-23 02:30N 34°38' E 135°28'0 0.0
2018-Jan-23 02:00N 34°38' E 135°28'0 0.1
2018-Jan-23 01:30N 34°38' E 135°29'0 0.5
2018-Jan-23 01:00N 34°38' E 135°28'0 0.0
2018-Jan-23 00:29N 34°38' E 135°28'0 0.1
2018-Jan-23 00:00N 34°38' E 135°28'0 0.4
2018-Jan-22 23:30N 34°38' E 135°29'0 0.0
2018-Jan-22 23:00N 34°38' E 135°29'0 0.0
2018-Jan-22 22:30N 34°38' E 135°29'0 0.0
2018-Jan-22 22:00N 34°38' E 135°29'0 0.0
2018-Jan-22 21:30N 34°38' E 135°29'0 0.1
2018-Jan-22 21:00N 34°38' E 135°28'0 0.1
2018-Jan-22 20:30N 34°38' E 135°29'0 0.1
2018-Jan-22 20:01N 34°38' E 135°28'0 0.1
2018-Jan-22 19:30N 34°38' E 135°29'0 0.0
2018-Jan-22 19:00N 34°38' E 135°29'0 0.0
2018-Jan-22 18:30N 34°38' E 135°29'0 0.0
2018-Jan-22 18:00N 34°38' E 135°29'0 0.0
2018-Jan-22 17:30N 34°38' E 135°29'0 0.0
2018-Jan-22 17:00N 34°38' E 135°29'0 0.0
2018-Jan-22 16:30N 34°38' E 135°29'0 0.1
2018-Jan-22 16:00N 34°38' E 135°28'0 0.1
2018-Jan-22 15:30N 34°38' E 135°29'0 0.0
2018-Jan-22 15:00N 34°38' E 135°29'0 0.0
2018-Jan-22 14:30N 34°38' E 135°29'0 0.0
2018-Jan-22 14:00N 34°38' E 135°29'0 0.0
2018-Jan-22 13:30N 34°38' E 135°29'0 0.0
2018-Jan-22 13:00N 34°38' E 135°29'0 0.0
2018-Jan-22 12:30N 34°38' E 135°29'0 0.0
2018-Jan-22 12:00N 34°38' E 135°29'0 0.0
2018-Jan-22 11:31N 34°38' E 135°29'0 0.0
2018-Jan-22 11:00N 34°38' E 135°29'0 0.0
2018-Jan-22 10:30N 34°38' E 135°29'0 0.0
2018-Jan-22 10:01N 34°38' E 135°29'0 0.1
2018-Jan-22 09:30N 34°38' E 135°28'0 0.1
2018-Jan-22 09:00N 34°38' E 135°29'0 0.0
2018-Jan-22 08:30N 34°38' E 135°29'0 0.1
2018-Jan-22 08:00N 34°38' E 135°28'0 0.1
2018-Jan-22 07:30N 34°38' E 135°29'0 0.0
2018-Jan-22 07:00N 34°38' E 135°29'0 0.0
2018-Jan-22 06:30N 34°38' E 135°29'0 0.0
2018-Jan-22 06:00N 34°38' E 135°29'0 0.0
2018-Jan-22 05:30N 34°38' E 135°29'0 0.0
2018-Jan-22 05:00N 34°38' E 135°29'0 0.0
2018-Jan-22 04:30N 34°38' E 135°29'0 0.0
2018-Jan-22 04:00N 34°38' E 135°29'0 0.0
2018-Jan-22 03:30N 34°38' E 135°29'0 0.1
2018-Jan-22 03:00N 34°38' E 135°28'0 0.1
2018-Jan-22 02:30N 34°38' E 135°29'  
2018-Jan-19 07:26N 34°38' E 135°29'0 0.0
2018-Jan-19 07:00N 34°38' E 135°29'0 0.0
2018-Jan-19 06:30N 34°38' E 135°29'  

Dump ship's entire track history